Flight Track Log - Related Links

Times and Time Zones

All times are in EDT time to prevent confusion due to time zone crossing. See the CPT8773 flight status page for this flight to view local times or setup timezone preferences in your user account.

Time Position Orientation Groundspeed Altitude Reporting Facility
EDT Latitude Longitude Course Direction KTS MPH feet Rate Location/Type
Mon 09:11:07 AM 42.9361 -106.4931 348° North 133 153 7,300  Level Salt Lake Center
Mon 09:12:08 AM 42.9742 -106.4922 North 139 160 8,000 756 Climbing Salt Lake Center
Mon 09:13:06 AM 43.0081 -106.4867 North 135 155 8,800 655 Climbing Denver Center
Mon 09:14:07 AM 43.0478 -106.4764 11° North 132 152 9,300 492 Climbing Denver Center
Mon 09:15:00 AM 43.0510 -106.6824 307° West  Level Estimated
Mon 09:15:08 AM 43.0811 -106.4686 10° North 130 150 9,800  Level Denver Center
Mon 09:16:00 AM 43.0859 -106.6922 348° North  Level FlightAware Approximate
Mon 09:16:09 AM 43.1133 -106.4603 11° North 127 146 10,300  Level Denver Center
Mon 09:17:10 AM 43.1508 -106.4547 North 125 144 10,700 344 Climbing Denver Center
Mon 09:18:11 AM 43.1836 -106.4553 359° North 124 143 11,000 298 Climbing Denver Center
Mon 09:19:11 AM 43.2050 -106.4772 323° Northwest 112 129 11,300 298 Climbing Denver Center
Mon 09:20:12 AM 43.2114 -106.5131 284° West 89 102 11,600 344 Climbing Denver Center
Mon 09:21:13 AM 43.2289 -106.5375 314° West 91 105 12,000 197 Climbing Denver Center
Mon 09:22:14 AM 43.2469 -106.5692 308° West 105 121 12,000 49 Level Denver Center
Mon 09:23:15 AM 43.2678 -106.6100 305° West 116 133 12,100  Climbing Denver Center
Mon 09:24:16 AM 43.2872 -106.6525 302° West 133 153 12,000 -49 Descending Denver Center
Mon 09:25:17 AM 43.3114 -106.6933 309° West 141 162 12,000  Level Denver Center
Mon 09:26:18 AM 43.3353 -106.7414 304° West 138 159 12,000  Level Denver Center
Mon 09:27:19 AM 43.3564 -106.7794 307° West 133 153 12,000  Level Denver Center
Mon 09:28:22 AM 43.3744 -106.8244 299° West 121 139 12,000  Level Salt Lake Center
Mon 09:29:23 AM 43.3931 -106.8597 306° West 119 137 12,000  Level Salt Lake Center
Mon 09:30:24 AM 43.4108 -106.8939 306° West 117 135 12,000  Level Salt Lake Center
Mon 09:31:25 AM 43.4317 -106.9319 307° West 118 136 12,000  Level Salt Lake Center
Mon 09:32:26 AM 43.4508 -106.9719 303° West 123 142 12,000  Level Salt Lake Center
Mon 09:33:27 AM 43.4714 -107.0097 307° West 123 142 12,000 -49 Level Salt Lake Center
Mon 09:34:28 AM 43.4944 -107.0517 307° West 132 152 11,900 -49 Descending Salt Lake Center
Mon 09:35:29 AM 43.5131 -107.0886 305° West 123 142 11,900  Level Salt Lake Center
Mon 09:36:30 AM 43.5303 -107.1228 305° West 113 130 11,900  Level Salt Lake Center
Mon 09:37:31 AM 43.5467 -107.1575 303° West 109 125 11,900 49 Level Salt Lake Center
Mon 09:38:32 AM 43.5661 -107.1933 307° West 100 115 12,000  Climbing Salt Lake Center
Mon 09:39:33 AM 43.5811 -107.2239 304° West 97 112 11,900  Descending Salt Lake Center
Mon 09:40:34 AM 43.6000 -107.2572 308° West 105 121 12,000  Climbing Salt Lake Center
Mon 09:41:35 AM 43.6194 -107.2942 306° West 111 128 11,900  Descending Salt Lake Center
Mon 09:42:36 AM 43.6411 -107.3319 308° West 118 136 12,000  Climbing Salt Lake Center
Mon 09:43:37 AM 43.6617 -107.3717 306° West 122 140 11,900 -49 Descending Salt Lake Center
Mon 09:44:39 AM 43.6814 -107.4111 305° West 124 143 11,900 49 Level Salt Lake Center
Mon 09:45:40 AM 43.6992 -107.4497 303° West 123 142 12,000 49 Climbing Salt Lake Center
Mon 09:46:41 AM 43.7169 -107.4864 304° West 119 137 12,000  Level Salt Lake Center
Mon 09:47:42 AM 43.7381 -107.5233 308° West 120 138 12,000  Level Salt Lake Center
Mon 09:48:43 AM 43.7578 -107.5594 307° West 120 138 12,000  Level Salt Lake Center
Mon 09:49:45 AM 43.7806 -107.6036 306° West 118 136 12,000  Level Salt Lake Center
Mon 09:50:46 AM 43.8006 -107.6408 307° West 119 137 12,000  Level Salt Lake Center
Mon 09:51:47 AM 43.8206 -107.6789 306° West 121 139 12,000  Level Salt Lake Center
Mon 09:52:48 AM 43.8406 -107.7150 308° West 120 138 12,000  Level Salt Lake Center
Mon 09:53:49 AM 43.8600 -107.7525 306° West 120 138 12,000  Level Salt Lake Center
Mon 09:54:51 AM 43.8794 -107.7900 306° West 120 138 12,000  Level Salt Lake Center
Mon 09:55:52 AM 43.8994 -107.8267 307° West 119 137 12,000  Level Salt Lake Center
Mon 09:56:53 AM 43.9200 -107.8656 306° West 122 140 12,000  Level Salt Lake Center
Mon 09:57:55 AM 43.9400 -107.9044 306° West 123 142 12,000  Level Salt Lake Center
Mon 09:58:56 AM 43.9614 -107.9447 306° West 125 144 12,000  Level Salt Lake Center
Mon 09:59:57 AM 43.9858 -107.9933 305° West 127 146 12,000  Level Salt Lake Center
Mon 10:00:59 AM 44.0067 -108.0319 307° West 127 146 12,000  Level Salt Lake Center
Mon 10:02:00 AM 44.0247 -108.0683 305° West 122 140 12,000  Level Salt Lake Center
Mon 10:03:01 AM 44.0431 -108.1036 306° West 118 136 12,000  Level Salt Lake Center
Mon 10:04:03 AM 44.0636 -108.1414 307° West 118 136 12,000  Level Salt Lake Center
Mon 10:05:04 AM 44.0861 -108.1844 306° West 125 144 12,000  Level Salt Lake Center
Mon 10:06:06 AM 44.1089 -108.2278 306° West 132 152 12,000  Level Salt Lake Center
Mon 10:07:07 AM 44.1311 -108.2717 305° West 135 155 12,000  Level Salt Lake Center
Mon 10:08:08 AM 44.1531 -108.3150 305° West 137 158 12,000  Level Salt Lake Center
Mon 10:09:10 AM 44.1797 -108.3636 307° West 135 155 12,000  Level Salt Lake Center
Mon 10:10:11 AM 44.1997 -108.4042 305° West 132 152 12,000  Level Salt Lake Center
Mon 10:11:13 AM 44.2206 -108.4433 307° West 129 148 12,000  Level Salt Lake Center
Mon 10:12:14 AM 44.2411 -108.4825 306° West 127 146 12,000  Level Salt Lake Center
Mon 10:13:16 AM 44.2617 -108.5219 306° West 126 145 12,000  Level Salt Lake Center
Mon 10:14:17 AM 44.2828 -108.5619 306° West 127 146 12,000  Level Salt Lake Center
Mon 10:15:18 AM 44.3028 -108.6006 306° West 126 145 12,000  Level Salt Lake Center
Mon 10:16:20 AM 44.3219 -108.6394 305° West 124 143 12,000  Level Salt Lake Center
Mon 10:17:21 AM 44.3403 -108.6775 304° West 121 139 12,000  Level Salt Lake Center
Mon 10:18:23 AM 44.3647 -108.7239 306° West 122 140 12,000  Level Salt Lake Center

Login

Don't have an account? Register now (free) for customized features, flight alerts, and more!